sensor_id;sensor_type;location;lat;lon;timestamp;P1;durP1;ratioP1;P2;durP2;ratioP2
77276;SDS011;66330;52.166;9.978;2023-08-24T00:01:12;2.90;;;2.53;;
77276;SDS011;66330;52.166;9.978;2023-08-24T00:03:38;1.93;;;1.77;;
77276;SDS011;66330;52.166;9.978;2023-08-24T00:06:04;3.90;;;2.30;;
77276;SDS011;66330;52.166;9.978;2023-08-24T00:08:29;2.93;;;2.20;;
77276;SDS011;66330;52.166;9.978;2023-08-24T00:10:55;2.97;;;2.77;;
77276;SDS011;66330;52.166;9.978;2023-08-24T00:13:21;3.17;;;2.87;;
77276;SDS011;66330;52.166;9.978;2023-08-24T00:15:46;2.80;;;2.60;;
77276;SDS011;66330;52.166;9.978;2023-08-24T00:18:12;2.47;;;2.27;;
77276;SDS011;66330;52.166;9.978;2023-08-24T00:20:38;3.10;;;2.80;;
77276;SDS011;66330;52.166;9.978;2023-08-24T00:23:03;2.90;;;2.70;;
77276;SDS011;66330;52.166;9.978;2023-08-24T00:25:29;3.50;;;3.20;;
77276;SDS011;66330;52.166;9.978;2023-08-24T00:27:55;3.27;;;3.07;;
77276;SDS011;66330;52.166;9.978;2023-08-24T00:30:23;3.30;;;3.07;;
77276;SDS011;66330;52.166;9.978;2023-08-24T00:32:48;3.07;;;2.83;;
77276;SDS011;66330;52.166;9.978;2023-08-24T00:35:14;2.73;;;2.53;;
77276;SDS011;66330;52.166;9.978;2023-08-24T00:37:40;3.43;;;3.23;;
77276;SDS011;66330;52.166;9.978;2023-08-24T00:40:06;3.20;;;2.90;;
77276;SDS011;66330;52.166;9.978;2023-08-24T00:42:38;3.13;;;2.90;;
77276;SDS011;66330;52.166;9.978;2023-08-24T00:45:06;3.30;;;3.10;;
77276;SDS011;66330;52.166;9.978;2023-08-24T00:47:32;3.70;;;3.10;;
77276;SDS011;66330;52.166;9.978;2023-08-24T00:49:59;3.70;;;3.40;;
77276;SDS011;66330;52.166;9.978;2023-08-24T00:52:25;3.50;;;3.27;;
77276;SDS011;66330;52.166;9.978;2023-08-24T00:54:53;3.70;;;3.40;;
77276;SDS011;66330;52.166;9.978;2023-08-24T00:57:19;3.70;;;3.13;;
77276;SDS011;66330;52.166;9.978;2023-08-24T00:59:46;3.30;;;3.00;;
77276;SDS011;66330;52.166;9.978;2023-08-24T01:02:12;3.07;;;2.87;;
77276;SDS011;66330;52.166;9.978;2023-08-24T01:04:40;3.30;;;3.10;;
77276;SDS011;66330;52.166;9.978;2023-08-24T01:07:07;3.30;;;3.10;;
77276;SDS011;66330;52.166;9.978;2023-08-24T01:09:34;3.37;;;3.07;;
77276;SDS011;66330;52.166;9.978;2023-08-24T01:12:02;2.80;;;2.60;;
77276;SDS011;66330;52.166;9.978;2023-08-24T01:14:47;3.50;;;3.20;;
77276;SDS011;66330;52.166;9.978;2023-08-24T01:17:24;3.80;;;2.60;;
77276;SDS011;66330;52.166;9.978;2023-08-24T01:19:55;3.60;;;3.30;;
77276;SDS011;66330;52.166;9.978;2023-08-24T01:27:45;3.33;;;3.13;;
77276;SDS011;66330;52.166;9.978;2023-08-24T01:30:13;3.37;;;3.10;;
77276;SDS011;66330;52.166;9.978;2023-08-24T01:32:39;4.20;;;3.47;;
77276;SDS011;66330;52.166;9.978;2023-08-24T01:35:06;4.00;;;3.13;;
77276;SDS011;66330;52.166;9.978;2023-08-24T01:37:34;3.83;;;3.53;;
77276;SDS011;66330;52.166;9.978;2023-08-24T01:40:05;4.37;;;4.07;;
77276;SDS011;66330;52.166;9.978;2023-08-24T01:42:46;3.77;;;3.47;;
77276;SDS011;66330;52.166;9.978;2023-08-24T01:45:19;4.00;;;3.70;;
77276;SDS011;66330;52.166;9.978;2023-08-24T01:47:49;4.00;;;3.60;;
77276;SDS011;66330;52.166;9.978;2023-08-24T01:50:16;3.70;;;3.40;;
77276;SDS011;66330;52.166;9.978;2023-08-24T01:52:42;4.03;;;3.73;;
77276;SDS011;66330;52.166;9.978;2023-08-24T01:55:08;3.57;;;3.23;;
77276;SDS011;66330;52.166;9.978;2023-08-24T01:57:34;3.17;;;2.97;;
77276;SDS011;66330;52.166;9.978;2023-08-24T01:59:59;3.40;;;3.10;;
77276;SDS011;66330;52.166;9.978;2023-08-24T02:02:25;3.40;;;3.20;;
77276;SDS011;66330;52.166;9.978;2023-08-24T02:04:50;3.53;;;3.33;;
77276;SDS011;66330;52.166;9.978;2023-08-24T02:07:16;3.43;;;3.13;;
77276;SDS011;66330;52.166;9.978;2023-08-24T02:09:41;3.63;;;3.33;;
77276;SDS011;66330;52.166;9.978;2023-08-24T02:12:07;3.57;;;3.27;;
77276;SDS011;66330;52.166;9.978;2023-08-24T02:14:33;3.73;;;3.43;;
77276;SDS011;66330;52.166;9.978;2023-08-24T02:16:58;3.97;;;3.67;;
77276;SDS011;66330;52.166;9.978;2023-08-24T02:19:24;4.00;;;3.70;;
77276;SDS011;66330;52.166;9.978;2023-08-24T02:21:49;3.67;;;3.37;;
77276;SDS011;66330;52.166;9.978;2023-08-24T02:24:15;3.80;;;3.40;;
77276;SDS011;66330;52.166;9.978;2023-08-24T02:26:40;7.30;;;3.73;;
77276;SDS011;66330;52.166;9.978;2023-08-24T02:29:06;3.83;;;3.17;;
77276;SDS011;66330;52.166;9.978;2023-08-24T02:31:32;4.20;;;3.90;;
77276;SDS011;66330;52.166;9.978;2023-08-24T02:33:57;3.37;;;2.90;;
77276;SDS011;66330;52.166;9.978;2023-08-24T02:36:23;4.27;;;3.87;;
77276;SDS011;66330;52.166;9.978;2023-08-24T02:38:48;3.90;;;3.40;;
77276;SDS011;66330;52.166;9.978;2023-08-24T02:41:14;4.17;;;3.77;;
77276;SDS011;66330;52.166;9.978;2023-08-24T02:43:39;4.33;;;3.93;;
77276;SDS011;66330;52.166;9.978;2023-08-24T02:46:06;3.37;;;3.07;;
77276;SDS011;66330;52.166;9.978;2023-08-24T02:48:33;3.90;;;3.60;;
77276;SDS011;66330;52.166;9.978;2023-08-24T02:50:59;3.67;;;3.37;;
77276;SDS011;66330;52.166;9.978;2023-08-24T02:53:26;3.80;;;3.50;;
77276;SDS011;66330;52.166;9.978;2023-08-24T02:55:52;4.23;;;3.87;;
77276;SDS011;66330;52.166;9.978;2023-08-24T02:58:18;4.83;;;3.90;;
77276;SDS011;66330;52.166;9.978;2023-08-24T03:00:44;3.43;;;3.13;;
77276;SDS011;66330;52.166;9.978;2023-08-24T03:03:10;6.40;;;3.67;;
77276;SDS011;66330;52.166;9.978;2023-08-24T03:05:36;13.17;;;11.77;;
77276;SDS011;66330;52.166;9.978;2023-08-24T03:08:01;14.00;;;12.50;;
77276;SDS011;66330;52.166;9.978;2023-08-24T03:10:29;12.17;;;10.93;;
77276;SDS011;66330;52.166;9.978;2023-08-24T03:12:55;3.70;;;3.40;;
77276;SDS011;66330;52.166;9.978;2023-08-24T03:15:20;5.30;;;4.80;;
77276;SDS011;66330;52.166;9.978;2023-08-24T03:17:46;4.90;;;4.50;;
77276;SDS011;66330;52.166;9.978;2023-08-24T03:20:12;8.17;;;7.40;;
77276;SDS011;66330;52.166;9.978;2023-08-24T03:22:38;5.77;;;5.27;;
77276;SDS011;66330;52.166;9.978;2023-08-24T03:25:05;4.50;;;4.10;;
77276;SDS011;66330;52.166;9.978;2023-08-24T03:27:31;5.27;;;4.77;;
77276;SDS011;66330;52.166;9.978;2023-08-24T03:29:57;4.30;;;3.90;;
77276;SDS011;66330;52.166;9.978;2023-08-24T03:32:22;7.23;;;6.47;;
77276;SDS011;66330;52.166;9.978;2023-08-24T03:34:48;4.50;;;4.13;;
77276;SDS011;66330;52.166;9.978;2023-08-24T03:37:13;5.77;;;5.27;;
77276;SDS011;66330;52.166;9.978;2023-08-24T03:39:40;4.30;;;4.00;;
77276;SDS011;66330;52.166;9.978;2023-08-24T03:42:06;5.43;;;3.90;;
77276;SDS011;66330;52.166;9.978;2023-08-24T03:44:32;4.10;;;3.80;;
77276;SDS011;66330;52.166;9.978;2023-08-24T03:46:59;5.87;;;5.30;;
77276;SDS011;66330;52.166;9.978;2023-08-24T03:49:24;5.10;;;4.70;;
77276;SDS011;66330;52.166;9.978;2023-08-24T03:51:51;5.67;;;5.17;;
77276;SDS011;66330;52.166;9.978;2023-08-24T03:54:16;4.83;;;4.43;;
77276;SDS011;66330;52.166;9.978;2023-08-24T03:56:42;4.73;;;4.30;;
77276;SDS011;66330;52.166;9.978;2023-08-24T03:59:07;5.40;;;4.90;;
77276;SDS011;66330;52.166;9.978;2023-08-24T04:01:33;5.10;;;4.70;;
77276;SDS011;66330;52.166;9.978;2023-08-24T04:03:59;4.10;;;3.80;;
77276;SDS011;66330;52.166;9.978;2023-08-24T04:06:24;4.80;;;4.27;;
77276;SDS011;66330;52.166;9.978;2023-08-24T04:08:50;4.37;;;4.07;;
77276;SDS011;66330;52.166;9.978;2023-08-24T04:11:15;4.67;;;4.23;;
77276;SDS011;66330;52.166;9.978;2023-08-24T04:13:41;6.10;;;4.90;;
77276;SDS011;66330;52.166;9.978;2023-08-24T04:16:06;5.13;;;4.63;;
77276;SDS011;66330;52.166;9.978;2023-08-24T04:18:32;5.23;;;4.83;;
77276;SDS011;66330;52.166;9.978;2023-08-24T04:20:57;5.40;;;4.90;;
77276;SDS011;66330;52.166;9.978;2023-08-24T04:23:23;5.07;;;4.67;;
77276;SDS011;66330;52.166;9.978;2023-08-24T04:25:50;5.93;;;4.30;;
77276;SDS011;66330;52.166;9.978;2023-08-24T04:28:16;6.00;;;5.50;;
77276;SDS011;66330;52.166;9.978;2023-08-24T04:30:48;6.43;;;5.83;;
77276;SDS011;66330;52.166;9.978;2023-08-24T04:33:22;6.07;;;5.60;;
77276;SDS011;66330;52.166;9.978;2023-08-24T04:35:50;5.53;;;4.93;;
77276;SDS011;66330;52.166;9.978;2023-08-24T04:38:16;5.60;;;5.10;;
77276;SDS011;66330;52.166;9.978;2023-08-24T04:40:52;5.43;;;4.90;;
77276;SDS011;66330;52.166;9.978;2023-08-24T04:43:21;4.40;;;4.10;;
77276;SDS011;66330;52.166;9.978;2023-08-24T04:45:48;4.67;;;4.27;;
77276;SDS011;66330;52.166;9.978;2023-08-24T04:48:14;5.17;;;3.93;;
77276;SDS011;66330;52.166;9.978;2023-08-24T04:50:42;9.20;;;6.40;;
77276;SDS011;66330;52.166;9.978;2023-08-24T04:53:09;13.57;;;7.43;;
77276;SDS011;66330;52.166;9.978;2023-08-24T04:55:34;30.23;;;10.67;;
77276;SDS011;66330;52.166;9.978;2023-08-24T04:58:00;29.00;;;11.80;;
77276;SDS011;66330;52.166;9.978;2023-08-24T05:00:25;21.90;;;9.70;;
77276;SDS011;66330;52.166;9.978;2023-08-24T05:02:51;9.87;;;7.70;;
77276;SDS011;66330;52.166;9.978;2023-08-24T05:05:17;5.50;;;4.97;;
77276;SDS011;66330;52.166;9.978;2023-08-24T05:07:42;5.70;;;5.10;;
77276;SDS011;66330;52.166;9.978;2023-08-24T05:10:08;6.67;;;4.93;;
77276;SDS011;66330;52.166;9.978;2023-08-24T05:12:34;5.90;;;5.00;;
77276;SDS011;66330;52.166;9.978;2023-08-24T05:15:03;7.60;;;5.13;;
77276;SDS011;66330;52.166;9.978;2023-08-24T05:17:29;6.00;;;4.87;;
77276;SDS011;66330;52.166;9.978;2023-08-24T05:19:56;5.30;;;4.80;;
77276;SDS011;66330;52.166;9.978;2023-08-24T05:22:22;5.33;;;4.83;;
77276;SDS011;66330;52.166;9.978;2023-08-24T05:24:48;6.87;;;4.87;;
77276;SDS011;66330;52.166;9.978;2023-08-24T05:27:14;11.07;;;9.93;;
77276;SDS011;66330;52.166;9.978;2023-08-24T05:29:41;24.00;;;14.50;;
77276;SDS011;66330;52.166;9.978;2023-08-24T05:32:07;9.83;;;8.80;;
77276;SDS011;66330;52.166;9.978;2023-08-24T05:34:32;9.57;;;7.10;;
77276;SDS011;66330;52.166;9.978;2023-08-24T05:36:58;6.97;;;5.80;;
77276;SDS011;66330;52.166;9.978;2023-08-24T05:39:23;6.77;;;6.13;;
77276;SDS011;66330;52.166;9.978;2023-08-24T05:41:52;8.80;;;5.87;;
77276;SDS011;66330;52.166;9.978;2023-08-24T05:44:20;5.80;;;5.20;;
77276;SDS011;66330;52.166;9.978;2023-08-24T05:46:46;5.53;;;5.13;;
77276;SDS011;66330;52.166;9.978;2023-08-24T05:49:12;5.40;;;4.90;;
77276;SDS011;66330;52.166;9.978;2023-08-24T05:51:38;5.57;;;5.17;;
77276;SDS011;66330;52.166;9.978;2023-08-24T05:54:04;7.03;;;6.33;;
77276;SDS011;66330;52.166;9.978;2023-08-24T05:56:29;7.87;;;7.20;;
77276;SDS011;66330;52.166;9.978;2023-08-24T05:58:56;7.20;;;6.60;;
77276;SDS011;66330;52.166;9.978;2023-08-24T06:01:23;5.10;;;4.70;;
77276;SDS011;66330;52.166;9.978;2023-08-24T06:03:49;7.20;;;4.47;;
77276;SDS011;66330;52.166;9.978;2023-08-24T06:06:15;7.23;;;5.30;;
77276;SDS011;66330;52.166;9.978;2023-08-24T06:08:41;8.70;;;8.00;;
77276;SDS011;66330;52.166;9.978;2023-08-24T06:11:07;7.43;;;6.83;;
77276;SDS011;66330;52.166;9.978;2023-08-24T06:13:32;11.87;;;10.83;;
77276;SDS011;66330;52.166;9.978;2023-08-24T06:15:58;8.10;;;5.17;;
77276;SDS011;66330;52.166;9.978;2023-08-24T06:18:24;5.07;;;4.57;;
77276;SDS011;66330;52.166;9.978;2023-08-24T06:20:49;5.90;;;4.50;;
77276;SDS011;66330;52.166;9.978;2023-08-24T06:23:18;4.97;;;4.47;;
77276;SDS011;66330;52.166;9.978;2023-08-24T06:25:44;5.67;;;4.50;;
77276;SDS011;66330;52.166;9.978;2023-08-24T06:28:10;4.83;;;4.47;;
77276;SDS011;66330;52.166;9.978;2023-08-24T06:30:40;9.90;;;8.13;;
77276;SDS011;66330;52.166;9.978;2023-08-24T06:33:08;8.07;;;6.63;;
77276;SDS011;66330;52.166;9.978;2023-08-24T06:35:35;5.70;;;5.07;;
77276;SDS011;66330;52.166;9.978;2023-08-24T06:38:02;5.60;;;5.10;;
77276;SDS011;66330;52.166;9.978;2023-08-24T06:40:28;5.53;;;5.03;;
77276;SDS011;66330;52.166;9.978;2023-08-24T06:42:55;5.47;;;4.97;;
77276;SDS011;66330;52.166;9.978;2023-08-24T06:45:21;5.97;;;5.40;;
77276;SDS011;66330;52.166;9.978;2023-08-24T06:47:47;7.07;;;5.00;;
77276;SDS011;66330;52.166;9.978;2023-08-24T06:50:12;5.20;;;4.80;;
77276;SDS011;66330;52.166;9.978;2023-08-24T06:52:40;6.57;;;5.90;;
77276;SDS011;66330;52.166;9.978;2023-08-24T06:55:06;8.47;;;7.70;;
77276;SDS011;66330;52.166;9.978;2023-08-24T06:57:33;5.77;;;5.27;;
77276;SDS011;66330;52.166;9.978;2023-08-24T06:59:58;8.10;;;5.30;;
77276;SDS011;66330;52.166;9.978;2023-08-24T07:02:25;12.50;;;11.30;;
77276;SDS011;66330;52.166;9.978;2023-08-24T07:04:50;7.93;;;7.13;;
77276;SDS011;66330;52.166;9.978;2023-08-24T07:07:16;12.40;;;11.30;;
77276;SDS011;66330;52.166;9.978;2023-08-24T07:09:41;8.07;;;7.37;;
77276;SDS011;66330;52.166;9.978;2023-08-24T07:12:07;8.90;;;6.90;;
77276;SDS011;66330;52.166;9.978;2023-08-24T07:14:35;6.23;;;5.73;;
77276;SDS011;66330;52.166;9.978;2023-08-24T07:17:01;9.60;;;8.73;;
77276;SDS011;66330;52.166;9.978;2023-08-24T07:19:27;13.43;;;12.23;;
77276;SDS011;66330;52.166;9.978;2023-08-24T07:21:53;13.23;;;12.03;;
77276;SDS011;66330;52.166;9.978;2023-08-24T07:24:18;6.40;;;5.90;;
77276;SDS011;66330;52.166;9.978;2023-08-24T07:26:45;5.80;;;5.30;;
77276;SDS011;66330;52.166;9.978;2023-08-24T07:29:11;4.43;;;4.13;;
77276;SDS011;66330;52.166;9.978;2023-08-24T07:31:37;5.53;;;5.00;;
77276;SDS011;66330;52.166;9.978;2023-08-24T07:34:03;5.57;;;5.23;;
77276;SDS011;66330;52.166;9.978;2023-08-24T07:36:31;5.63;;;5.23;;
77276;SDS011;66330;52.166;9.978;2023-08-24T07:38:56;10.27;;;9.37;;
77276;SDS011;66330;52.166;9.978;2023-08-24T07:41:22;9.53;;;6.67;;
77276;SDS011;66330;52.166;9.978;2023-08-24T07:43:47;4.97;;;4.60;;
77276;SDS011;66330;52.166;9.978;2023-08-24T07:46:13;4.40;;;4.10;;
77276;SDS011;66330;52.166;9.978;2023-08-24T07:48:39;4.27;;;3.97;;
77276;SDS011;66330;52.166;9.978;2023-08-24T07:51:04;5.80;;;4.57;;
77276;SDS011;66330;52.166;9.978;2023-08-24T07:53:30;3.17;;;2.97;;
77276;SDS011;66330;52.166;9.978;2023-08-24T07:55:58;3.50;;;3.23;;
77276;SDS011;66330;52.166;9.978;2023-08-24T07:58:24;3.60;;;3.30;;
77276;SDS011;66330;52.166;9.978;2023-08-24T08:00:50;3.80;;;3.50;;
77276;SDS011;66330;52.166;9.978;2023-08-24T08:03:17;3.60;;;3.30;;
77276;SDS011;66330;52.166;9.978;2023-08-24T08:05:43;2.80;;;2.60;;
77276;SDS011;66330;52.166;9.978;2023-08-24T08:08:09;3.53;;;3.23;;
77276;SDS011;66330;52.166;9.978;2023-08-24T08:10:35;3.13;;;2.93;;
77276;SDS011;66330;52.166;9.978;2023-08-24T08:13:00;3.13;;;2.93;;
77276;SDS011;66330;52.166;9.978;2023-08-24T08:15:26;2.77;;;2.57;;
77276;SDS011;66330;52.166;9.978;2023-08-24T08:17:51;3.43;;;3.10;;
77276;SDS011;66330;52.166;9.978;2023-08-24T08:20:17;3.10;;;2.90;;
77276;SDS011;66330;52.166;9.978;2023-08-24T08:22:43;3.17;;;2.97;;
77276;SDS011;66330;52.166;9.978;2023-08-24T08:25:09;2.57;;;2.37;;
77276;SDS011;66330;52.166;9.978;2023-08-24T08:27:34;2.80;;;2.60;;
77276;SDS011;66330;52.166;9.978;2023-08-24T08:30:00;2.70;;;2.50;;
77276;SDS011;66330;52.166;9.978;2023-08-24T08:32:25;2.70;;;2.50;;
77276;SDS011;66330;52.166;9.978;2023-08-24T08:34:53;2.67;;;2.50;;
77276;SDS011;66330;52.166;9.978;2023-08-24T08:37:20;3.07;;;2.77;;
77276;SDS011;66330;52.166;9.978;2023-08-24T08:39:45;2.70;;;2.50;;
77276;SDS011;66330;52.166;9.978;2023-08-24T08:42:12;3.07;;;2.80;;
77276;SDS011;66330;52.166;9.978;2023-08-24T08:44:38;3.30;;;3.00;;
77276;SDS011;66330;52.166;9.978;2023-08-24T08:47:05;2.80;;;2.60;;
77276;SDS011;66330;52.166;9.978;2023-08-24T08:49:33;3.90;;;2.73;;
77276;SDS011;66330;52.166;9.978;2023-08-24T08:52:00;4.90;;;3.00;;
77276;SDS011;66330;52.166;9.978;2023-08-24T08:54:26;3.53;;;2.80;;
77276;SDS011;66330;52.166;9.978;2023-08-24T08:56:52;2.30;;;2.20;;
77276;SDS011;66330;52.166;9.978;2023-08-24T08:59:18;2.57;;;2.37;;
77276;SDS011;66330;52.166;9.978;2023-08-24T09:01:44;2.40;;;2.30;;
77276;SDS011;66330;52.166;9.978;2023-08-24T09:04:12;4.83;;;3.00;;
77276;SDS011;66330;52.166;9.978;2023-08-24T09:06:38;2.70;;;2.50;;
77276;SDS011;66330;52.166;9.978;2023-08-24T09:09:04;2.80;;;2.60;;
77276;SDS011;66330;52.166;9.978;2023-08-24T09:11:31;3.03;;;2.83;;
77276;SDS011;66330;52.166;9.978;2023-08-24T09:13:58;2.80;;;2.60;;
77276;SDS011;66330;52.166;9.978;2023-08-24T09:16:23;3.00;;;2.80;;
77276;SDS011;66330;52.166;9.978;2023-08-24T09:18:54;2.50;;;2.30;;
77276;SDS011;66330;52.166;9.978;2023-08-24T09:21:20;2.53;;;2.33;;
77276;SDS011;66330;52.166;9.978;2023-08-24T09:23:55;3.10;;;2.80;;
77276;SDS011;66330;52.166;9.978;2023-08-24T09:26:27;2.80;;;2.60;;
77276;SDS011;66330;52.166;9.978;2023-08-24T09:28:54;5.93;;;5.33;;
77276;SDS011;66330;52.166;9.978;2023-08-24T09:31:20;2.63;;;2.47;;
77276;SDS011;66330;52.166;9.978;2023-08-24T09:33:46;3.20;;;2.90;;
77276;SDS011;66330;52.166;9.978;2023-08-24T09:36:13;2.60;;;2.20;;
77276;SDS011;66330;52.166;9.978;2023-08-24T09:38:45;2.60;;;2.40;;
77276;SDS011;66330;52.166;9.978;2023-08-24T09:41:16;2.70;;;2.50;;
77276;SDS011;66330;52.166;9.978;2023-08-24T09:43:42;2.50;;;2.30;;
77276;SDS011;66330;52.166;9.978;2023-08-24T09:46:08;2.40;;;2.20;;
77276;SDS011;66330;52.166;9.978;2023-08-24T09:48:34;2.90;;;2.70;;
77276;SDS011;66330;52.166;9.978;2023-08-24T09:51:01;3.10;;;2.53;;
77276;SDS011;66330;52.166;9.978;2023-08-24T09:53:29;3.00;;;2.30;;
77276;SDS011;66330;52.166;9.978;2023-08-24T09:56:01;3.03;;;2.83;;
77276;SDS011;66330;52.166;9.978;2023-08-24T09:58:28;3.00;;;2.80;;
77276;SDS011;66330;52.166;9.978;2023-08-24T10:00:54;3.70;;;2.50;;
77276;SDS011;66330;52.166;9.978;2023-08-24T10:03:25;2.70;;;2.50;;
77276;SDS011;66330;52.166;9.978;2023-08-24T10:05:52;3.03;;;2.70;;
77276;SDS011;66330;52.166;9.978;2023-08-24T10:08:24;2.50;;;2.40;;
77276;SDS011;66330;52.166;9.978;2023-08-24T10:11:02;2.90;;;2.70;;
77276;SDS011;66330;52.166;9.978;2023-08-24T10:16:05;2.73;;;2.60;;
77276;SDS011;66330;52.166;9.978;2023-08-24T10:18:33;4.20;;;3.80;;
77276;SDS011;66330;52.166;9.978;2023-08-24T10:21:00;2.97;;;2.77;;
77276;SDS011;66330;52.166;9.978;2023-08-24T10:23:27;2.20;;;2.10;;
77276;SDS011;66330;52.166;9.978;2023-08-24T10:25:55;4.00;;;3.70;;
77276;SDS011;66330;52.166;9.978;2023-08-24T10:28:21;2.30;;;2.20;;
77276;SDS011;66330;52.166;9.978;2023-08-24T10:30:52;2.80;;;2.60;;
77276;SDS011;66330;52.166;9.978;2023-08-24T10:33:20;2.93;;;2.73;;
77276;SDS011;66330;52.166;9.978;2023-08-24T10:35:47;2.60;;;2.40;;
77276;SDS011;66330;52.166;9.978;2023-08-24T10:38:26;2.40;;;2.27;;
77276;SDS011;66330;52.166;9.978;2023-08-24T10:40:52;2.50;;;2.33;;
77276;SDS011;66330;52.166;9.978;2023-08-24T10:43:18;3.13;;;2.93;;
77276;SDS011;66330;52.166;9.978;2023-08-24T10:45:54;2.47;;;2.30;;
77276;SDS011;66330;52.166;9.978;2023-08-24T10:48:25;2.47;;;2.27;;
77276;SDS011;66330;52.166;9.978;2023-08-24T10:53:40;2.37;;;2.27;;
77276;SDS011;66330;52.166;9.978;2023-08-24T10:56:12;2.40;;;2.30;;
77276;SDS011;66330;52.166;9.978;2023-08-24T10:58:39;2.00;;;1.77;;
77276;SDS011;66330;52.166;9.978;2023-08-24T11:01:05;2.40;;;2.30;;
77276;SDS011;66330;52.166;9.978;2023-08-24T11:03:33;4.10;;;2.30;;
77276;SDS011;66330;52.166;9.978;2023-08-24T11:05:59;2.63;;;2.43;;
77276;SDS011;66330;52.166;9.978;2023-08-24T11:08:44;4.50;;;4.20;;
77276;SDS011;66330;52.166;9.978;2023-08-24T11:11:23;2.17;;;2.08;;
77276;SDS011;66330;52.166;9.978;2023-08-24T11:16:47;2.07;;;1.97;;
77276;SDS011;66330;52.166;9.978;2023-08-24T11:19:14;3.53;;;3.23;;
77276;SDS011;66330;52.166;9.978;2023-08-24T11:21:41;2.50;;;2.30;;
77276;SDS011;66330;52.166;9.978;2023-08-24T11:24:08;2.47;;;2.25;;
77276;SDS011;66330;52.166;9.978;2023-08-24T11:26:39;2.47;;;2.28;;
77276;SDS011;66330;52.166;9.978;2023-08-24T11:29:08;2.08;;;1.98;;
77276;SDS011;66330;52.166;9.978;2023-08-24T11:31:34;2.08;;;1.98;;
77276;SDS011;66330;52.166;9.978;2023-08-24T11:34:01;1.85;;;1.75;;
77276;SDS011;66330;52.166;9.978;2023-08-24T11:36:28;2.72;;;2.30;;
77276;SDS011;66330;52.166;9.978;2023-08-24T11:38:56;1.98;;;1.88;;
77276;SDS011;66330;52.166;9.978;2023-08-24T11:41:23;2.10;;;2.00;;
77276;SDS011;66330;52.166;9.978;2023-08-24T11:43:49;2.47;;;2.25;;
77276;SDS011;66330;52.166;9.978;2023-08-24T11:46:22;2.00;;;1.90;;
77276;SDS011;66330;52.166;9.978;2023-08-24T11:48:48;1.60;;;1.50;;
77276;SDS011;66330;52.166;9.978;2023-08-24T11:51:14;1.90;;;1.70;;
77276;SDS011;66330;52.166;9.978;2023-08-24T11:53:41;1.75;;;1.65;;
77276;SDS011;66330;52.166;9.978;2023-08-24T11:56:08;1.75;;;1.65;;
77276;SDS011;66330;52.166;9.978;2023-08-24T11:58:37;1.52;;;1.42;;
77276;SDS011;66330;52.166;9.978;2023-08-24T12:01:04;2.15;;;2.05;;
77276;SDS011;66330;52.166;9.978;2023-08-24T12:03:30;2.05;;;1.75;;
77276;SDS011;66330;52.166;9.978;2023-08-24T12:06:01;2.47;;;2.28;;
77276;SDS011;66330;52.166;9.978;2023-08-24T12:08:29;2.15;;;1.90;;
77276;SDS011;66330;52.166;9.978;2023-08-24T12:10:55;1.77;;;1.67;;
77276;SDS011;66330;52.166;9.978;2023-08-24T12:13:20;2.17;;;2.08;;
77276;SDS011;66330;52.166;9.978;2023-08-24T12:15:47;1.70;;;1.60;;
77276;SDS011;66330;52.166;9.978;2023-08-24T12:18:15;3.88;;;1.75;;
77276;SDS011;66330;52.166;9.978;2023-08-24T12:20:41;3.00;;;1.85;;
77276;SDS011;66330;52.166;9.978;2023-08-24T12:23:07;1.73;;;1.63;;
77276;SDS011;66330;52.166;9.978;2023-08-24T12:25:37;2.10;;;1.88;;
77276;SDS011;66330;52.166;9.978;2023-08-24T12:28:09;1.70;;;1.60;;
77276;SDS011;66330;52.166;9.978;2023-08-24T12:30:49;1.70;;;1.60;;
77276;SDS011;66330;52.166;9.978;2023-08-24T12:33:21;1.80;;;1.70;;
77276;SDS011;66330;52.166;9.978;2023-08-24T12:35:46;2.08;;;1.60;;
77276;SDS011;66330;52.166;9.978;2023-08-24T12:38:12;1.98;;;1.85;;
77276;SDS011;66330;52.166;9.978;2023-08-24T12:40:38;1.75;;;1.65;;
77276;SDS011;66330;52.166;9.978;2023-08-24T12:43:03;2.42;;;2.20;;
77276;SDS011;66330;52.166;9.978;2023-08-24T12:45:29;3.85;;;2.20;;
77276;SDS011;66330;52.166;9.978;2023-08-24T12:47:54;1.50;;;1.15;;
77276;SDS011;66330;52.166;9.978;2023-08-24T12:50:20;1.45;;;1.33;;
77276;SDS011;66330;52.166;9.978;2023-08-24T12:52:46;1.35;;;1.25;;
77276;SDS011;66330;52.166;9.978;2023-08-24T12:55:11;1.60;;;1.48;;
77276;SDS011;66330;52.166;9.978;2023-08-24T12:57:37;3.15;;;1.58;;
77276;SDS011;66330;52.166;9.978;2023-08-24T13:00:02;2.67;;;1.35;;
77276;SDS011;66330;52.166;9.978;2023-08-24T13:02:28;1.48;;;1.38;;
77276;SDS011;66330;52.166;9.978;2023-08-24T13:04:54;2.33;;;1.70;;
77276;SDS011;66330;52.166;9.978;2023-08-24T13:07:20;2.20;;;2.00;;
77276;SDS011;66330;52.166;9.978;2023-08-24T13:09:46;1.60;;;1.50;;
77276;SDS011;66330;52.166;9.978;2023-08-24T13:12:11;1.55;;;1.45;;
77276;SDS011;66330;52.166;9.978;2023-08-24T13:14:37;1.90;;;1.80;;
77276;SDS011;66330;52.166;9.978;2023-08-24T13:17:02;1.85;;;1.75;;
77276;SDS011;66330;52.166;9.978;2023-08-24T13:19:28;1.63;;;1.52;;
77276;SDS011;66330;52.166;9.978;2023-08-24T13:21:54;1.70;;;1.60;;
77276;SDS011;66330;52.166;9.978;2023-08-24T13:24:19;1.60;;;1.50;;
77276;SDS011;66330;52.166;9.978;2023-08-24T13:26:45;1.55;;;1.45;;
77276;SDS011;66330;52.166;9.978;2023-08-24T13:29:11;1.42;;;1.33;;
77276;SDS011;66330;52.166;9.978;2023-08-24T13:31:36;2.00;;;1.90;;
77276;SDS011;66330;52.166;9.978;2023-08-24T13:34:02;1.80;;;1.70;;
77276;SDS011;66330;52.166;9.978;2023-08-24T13:36:29;1.48;;;1.38;;
77276;SDS011;66330;52.166;9.978;2023-08-24T13:38:55;1.50;;;1.40;;
77276;SDS011;66330;52.166;9.978;2023-08-24T13:41:20;1.77;;;1.35;;
77276;SDS011;66330;52.166;9.978;2023-08-24T13:43:46;1.58;;;1.48;;
77276;SDS011;66330;52.166;9.978;2023-08-24T13:46:11;2.00;;;1.90;;
77276;SDS011;66330;52.166;9.978;2023-08-24T13:48:37;1.50;;;1.40;;
77276;SDS011;66330;52.166;9.978;2023-08-24T13:51:03;2.53;;;1.77;;
77276;SDS011;66330;52.166;9.978;2023-08-24T13:53:28;1.77;;;1.50;;
77276;SDS011;66330;52.166;9.978;2023-08-24T13:55:54;1.83;;;1.73;;
77276;SDS011;66330;52.166;9.978;2023-08-24T13:58:19;1.98;;;1.88;;
77276;SDS011;66330;52.166;9.978;2023-08-24T14:00:45;1.80;;;1.58;;
77276;SDS011;66330;52.166;9.978;2023-08-24T14:03:10;1.65;;;1.55;;
77276;SDS011;66330;52.166;9.978;2023-08-24T14:05:39;1.77;;;1.47;;
77276;SDS011;66330;52.166;9.978;2023-08-24T14:08:05;2.70;;;1.60;;
77276;SDS011;66330;52.166;9.978;2023-08-24T14:10:30;1.90;;;1.80;;
77276;SDS011;66330;52.166;9.978;2023-08-24T14:12:56;1.80;;;1.70;;
77276;SDS011;66330;52.166;9.978;2023-08-24T14:15:22;1.97;;;1.63;;
77276;SDS011;66330;52.166;9.978;2023-08-24T14:17:47;2.00;;;1.77;;
77276;SDS011;66330;52.166;9.978;2023-08-24T14:20:13;1.40;;;1.30;;
77276;SDS011;66330;52.166;9.978;2023-08-24T14:22:39;1.10;;;1.10;;
77276;SDS011;66330;52.166;9.978;2023-08-24T14:25:05;2.00;;;1.80;;
77276;SDS011;66330;52.166;9.978;2023-08-24T14:27:31;1.63;;;1.53;;
77276;SDS011;66330;52.166;9.978;2023-08-24T14:29:56;1.60;;;1.50;;
77276;SDS011;66330;52.166;9.978;2023-08-24T14:32:22;1.70;;;1.60;;
77276;SDS011;66330;52.166;9.978;2023-08-24T14:34:48;1.50;;;1.40;;
77276;SDS011;66330;52.166;9.978;2023-08-24T14:37:14;1.73;;;1.63;;
77276;SDS011;66330;52.166;9.978;2023-08-24T14:39:39;1.70;;;1.57;;
77276;SDS011;66330;52.166;9.978;2023-08-24T14:42:05;1.80;;;1.70;;
77276;SDS011;66330;52.166;9.978;2023-08-24T14:44:32;2.70;;;2.03;;
77276;SDS011;66330;52.166;9.978;2023-08-24T14:46:58;2.63;;;1.90;;
77276;SDS011;66330;52.166;9.978;2023-08-24T14:49:24;1.63;;;1.50;;
77276;SDS011;66330;52.166;9.978;2023-08-24T14:51:50;1.60;;;1.50;;
77276;SDS011;66330;52.166;9.978;2023-08-24T14:54:16;1.80;;;1.70;;
77276;SDS011;66330;52.166;9.978;2023-08-24T14:56:43;1.87;;;1.67;;